Weather at Wallace Bay Airport

Public forecast

Using degrees Celsius for public forecast. Weather courtesy of forecast.io.

Closest aviation weather report (METAR) to Wallace Bay Airport

Closest report is Tawau Airport, 28.2 nm (52.2 km) E.

2024/05/26 19:00 (retrieved 16 minutes ago)

WBKW 261900Z 00000KT 9999 FEW017 26/25 Q1008

Closest aviation forecast (TAF) to Wallace Bay Airport

Closest forecast is Tawau Airport, 28.2 nm (52.2 km) E.

2024/05/26 18:00 (retrieved 1 hour ago)

TAF WBKW 261700Z 2618/2718 VRB03KT 9999 FEW016